sensor_id;sensor_type;location;lat;lon;timestamp;temperature;humidity
23520;DHT22;11936;50.820;4.336;2023-02-01T00:02:23;8.70;99.90
23520;DHT22;11936;50.820;4.336;2023-02-01T00:04:49;8.70;99.90
23520;DHT22;11936;50.820;4.336;2023-02-01T00:07:14;8.70;99.90
23520;DHT22;11936;50.820;4.336;2023-02-01T00:09:40;8.70;99.90
23520;DHT22;11936;50.820;4.336;2023-02-01T00:12:06;8.70;99.90
23520;DHT22;11936;50.820;4.336;2023-02-01T00:14:31;8.70;99.90
23520;DHT22;11936;50.820;4.336;2023-02-01T00:17:06;8.80;99.90
23520;DHT22;11936;50.820;4.336;2023-02-01T00:19:32;8.80;99.90
23520;DHT22;11936;50.820;4.336;2023-02-01T00:21:58;8.80;99.90
23520;DHT22;11936;50.820;4.336;2023-02-01T00:24:24;8.80;99.90
23520;DHT22;11936;50.820;4.336;2023-02-01T00:26:49;8.80;99.90
23520;DHT22;11936;50.820;4.336;2023-02-01T00:29:17;8.70;99.90
23520;DHT22;11936;50.820;4.336;2023-02-01T00:31:44;8.60;99.90
23520;DHT22;11936;50.820;4.336;2023-02-01T00:34:12;8.70;99.90
23520;DHT22;11936;50.820;4.336;2023-02-01T00:36:39;8.60;99.90
23520;DHT22;11936;50.820;4.336;2023-02-01T00:39:05;8.60;99.90
23520;DHT22;11936;50.820;4.336;2023-02-01T00:41:30;8.60;99.90
23520;DHT22;11936;50.820;4.336;2023-02-01T00:43:56;8.60;99.90
23520;DHT22;11936;50.820;4.336;2023-02-01T00:46:22;8.60;99.90
23520;DHT22;11936;50.820;4.336;2023-02-01T00:48:48;8.70;99.90
23520;DHT22;11936;50.820;4.336;2023-02-01T00:51:17;8.60;99.90
23520;DHT22;11936;50.820;4.336;2023-02-01T00:53:42;8.60;99.90
23520;DHT22;11936;50.820;4.336;2023-02-01T00:56:08;8.70;99.90
23520;DHT22;11936;50.820;4.336;2023-02-01T00:58:34;8.70;99.90
23520;DHT22;11936;50.820;4.336;2023-02-01T01:03:30;8.40;99.90
23520;DHT22;11936;50.820;4.336;2023-02-01T01:06:00;8.50;99.90
23520;DHT22;11936;50.820;4.336;2023-02-01T01:08:25;8.60;99.90
23520;DHT22;11936;50.820;4.336;2023-02-01T01:10:51;8.60;99.90
23520;DHT22;11936;50.820;4.336;2023-02-01T01:13:17;8.60;99.90
23520;DHT22;11936;50.820;4.336;2023-02-01T01:15:42;8.60;99.90
23520;DHT22;11936;50.820;4.336;2023-02-01T01:18:08;8.50;99.90
23520;DHT22;11936;50.820;4.336;2023-02-01T01:20:35;8.50;99.90
23520;DHT22;11936;50.820;4.336;2023-02-01T01:23:02;8.50;99.90
23520;DHT22;11936;50.820;4.336;2023-02-01T01:25:27;8.50;99.90
23520;DHT22;11936;50.820;4.336;2023-02-01T01:27:53;8.40;99.90
23520;DHT22;11936;50.820;4.336;2023-02-01T01:30:18;8.50;99.90
23520;DHT22;11936;50.820;4.336;2023-02-01T01:32:44;8.50;99.90
23520;DHT22;11936;50.820;4.336;2023-02-01T01:35:10;8.50;99.90
23520;DHT22;11936;50.820;4.336;2023-02-01T01:37:36;8.40;99.90
23520;DHT22;11936;50.820;4.336;2023-02-01T01:40:05;8.50;99.90
23520;DHT22;11936;50.820;4.336;2023-02-01T01:42:37;8.50;99.90
23520;DHT22;11936;50.820;4.336;2023-02-01T01:45:10;8.40;99.90
23520;DHT22;11936;50.820;4.336;2023-02-01T01:47:44;8.40;99.90
23520;DHT22;11936;50.820;4.336;2023-02-01T01:50:16;8.50;99.90
23520;DHT22;11936;50.820;4.336;2023-02-01T01:52:44;8.50;99.90
23520;DHT22;11936;50.820;4.336;2023-02-01T01:55:13;8.50;99.90
23520;DHT22;11936;50.820;4.336;2023-02-01T01:57:42;8.40;99.90
23520;DHT22;11936;50.820;4.336;2023-02-01T02:00:14;8.40;99.90
23520;DHT22;11936;50.820;4.336;2023-02-01T02:02:46;8.40;99.90
23520;DHT22;11936;50.820;4.336;2023-02-01T02:05:12;8.50;99.90
23520;DHT22;11936;50.820;4.336;2023-02-01T02:07:45;8.60;99.90
23520;DHT22;11936;50.820;4.336;2023-02-01T02:10:12;8.50;99.90
23520;DHT22;11936;50.820;4.336;2023-02-01T02:12:44;8.50;99.90
23520;DHT22;11936;50.820;4.336;2023-02-01T02:15:12;8.40;99.90
23520;DHT22;11936;50.820;4.336;2023-02-01T02:18:19;8.40;99.90
23520;DHT22;11936;50.820;4.336;2023-02-01T02:23:55;8.30;99.90
23520;DHT22;11936;50.820;4.336;2023-02-01T02:32:17;8.30;99.90
23520;DHT22;11936;50.820;4.336;2023-02-01T02:35:01;8.20;99.90
23520;DHT22;11936;50.820;4.336;2023-02-01T02:42:42;8.40;99.90
23520;DHT22;11936;50.820;4.336;2023-02-01T02:51:22;8.40;99.90
23520;DHT22;11936;50.820;4.336;2023-02-01T02:54:11;8.40;99.90
23520;DHT22;11936;50.820;4.336;2023-02-01T02:56:56;8.30;99.90
23520;DHT22;11936;50.820;4.336;2023-02-01T02:59:43;8.30;99.90
23520;DHT22;11936;50.820;4.336;2023-02-01T03:02:29;8.30;99.90
23520;DHT22;11936;50.820;4.336;2023-02-01T03:05:13;8.30;99.90
23520;DHT22;11936;50.820;4.336;2023-02-01T03:10:48;8.20;99.90
23520;DHT22;11936;50.820;4.336;2023-02-01T03:16:40;8.10;99.90
23520;DHT22;11936;50.820;4.336;2023-02-01T03:18:57;8.10;99.90
23520;DHT22;11936;50.820;4.336;2023-02-01T03:24:17;8.00;99.90
23520;DHT22;11936;50.820;4.336;2023-02-01T03:26:51;8.00;99.90
23520;DHT22;11936;50.820;4.336;2023-02-01T03:29:23;8.00;99.90
23520;DHT22;11936;50.820;4.336;2023-02-01T03:31:51;7.90;99.90
23520;DHT22;11936;50.820;4.336;2023-02-01T03:34:17;7.90;99.90
23520;DHT22;11936;50.820;4.336;2023-02-01T03:36:55;7.90;99.90
23520;DHT22;11936;50.820;4.336;2023-02-01T03:39:45;7.90;99.90
23520;DHT22;11936;50.820;4.336;2023-02-01T03:42:17;7.80;99.90
23520;DHT22;11936;50.820;4.336;2023-02-01T03:44:51;7.90;99.90
23520;DHT22;11936;50.820;4.336;2023-02-01T03:47:25;7.90;99.90
23520;DHT22;11936;50.820;4.336;2023-02-01T03:49:58;7.90;99.90
23520;DHT22;11936;50.820;4.336;2023-02-01T03:55:08;7.90;99.90
23520;DHT22;11936;50.820;4.336;2023-02-01T03:57:39;7.80;99.90
23520;DHT22;11936;50.820;4.336;2023-02-01T04:00:15;7.90;99.90
23520;DHT22;11936;50.820;4.336;2023-02-01T04:02:44;8.00;99.90
23520;DHT22;11936;50.820;4.336;2023-02-01T04:05:10;8.00;99.90
23520;DHT22;11936;50.820;4.336;2023-02-01T04:07:36;8.00;99.90
23520;DHT22;11936;50.820;4.336;2023-02-01T04:10:03;8.00;99.90
23520;DHT22;11936;50.820;4.336;2023-02-01T04:12:29;7.90;99.90
23520;DHT22;11936;50.820;4.336;2023-02-01T04:14:54;7.90;99.90
23520;DHT22;11936;50.820;4.336;2023-02-01T04:17:20;7.80;99.90
23520;DHT22;11936;50.820;4.336;2023-02-01T04:19:46;7.80;99.90
23520;DHT22;11936;50.820;4.336;2023-02-01T04:22:12;7.80;99.90
23520;DHT22;11936;50.820;4.336;2023-02-01T04:24:37;7.90;99.90
23520;DHT22;11936;50.820;4.336;2023-02-01T04:27:03;7.90;99.90
23520;DHT22;11936;50.820;4.336;2023-02-01T04:29:29;7.90;99.90
23520;DHT22;11936;50.820;4.336;2023-02-01T04:31:54;7.80;99.90
23520;DHT22;11936;50.820;4.336;2023-02-01T04:34:20;7.80;99.90
23520;DHT22;11936;50.820;4.336;2023-02-01T04:36:48;7.70;99.90
23520;DHT22;11936;50.820;4.336;2023-02-01T04:39:13;7.70;99.90
23520;DHT22;11936;50.820;4.336;2023-02-01T04:41:39;7.70;99.90
23520;DHT22;11936;50.820;4.336;2023-02-01T04:44:13;7.60;99.90
23520;DHT22;11936;50.820;4.336;2023-02-01T04:46:40;7.70;99.90
23520;DHT22;11936;50.820;4.336;2023-02-01T04:49:05;7.60;99.90
23520;DHT22;11936;50.820;4.336;2023-02-01T04:51:31;7.50;99.90
23520;DHT22;11936;50.820;4.336;2023-02-01T04:53:57;7.50;99.90
23520;DHT22;11936;50.820;4.336;2023-02-01T04:56:23;7.40;99.90
23520;DHT22;11936;50.820;4.336;2023-02-01T04:58:48;7.40;99.90
23520;DHT22;11936;50.820;4.336;2023-02-01T05:01:14;7.20;99.90
23520;DHT22;11936;50.820;4.336;2023-02-01T05:03:40;7.30;99.90
23520;DHT22;11936;50.820;4.336;2023-02-01T05:06:05;7.30;99.90
23520;DHT22;11936;50.820;4.336;2023-02-01T05:08:32;7.40;99.90
23520;DHT22;11936;50.820;4.336;2023-02-01T05:10:57;7.40;99.90
23520;DHT22;11936;50.820;4.336;2023-02-01T05:13:24;7.30;99.90
23520;DHT22;11936;50.820;4.336;2023-02-01T05:16:09;7.30;99.90
23520;DHT22;11936;50.820;4.336;2023-02-01T05:18:34;7.30;99.90
23520;DHT22;11936;50.820;4.336;2023-02-01T05:21:00;7.40;99.90
23520;DHT22;11936;50.820;4.336;2023-02-01T05:23:26;7.50;99.90
23520;DHT22;11936;50.820;4.336;2023-02-01T05:25:51;7.60;99.90
23520;DHT22;11936;50.820;4.336;2023-02-01T05:28:17;7.40;99.90
23520;DHT22;11936;50.820;4.336;2023-02-01T05:30:42;7.40;99.90
23520;DHT22;11936;50.820;4.336;2023-02-01T05:33:08;7.30;99.90
23520;DHT22;11936;50.820;4.336;2023-02-01T05:35:34;7.10;99.90
23520;DHT22;11936;50.820;4.336;2023-02-01T05:38:00;7.20;99.90
23520;DHT22;11936;50.820;4.336;2023-02-01T05:40:25;7.20;99.90
23520;DHT22;11936;50.820;4.336;2023-02-01T05:42:51;7.10;99.90
23520;DHT22;11936;50.820;4.336;2023-02-01T05:45:16;7.00;99.90
23520;DHT22;11936;50.820;4.336;2023-02-01T05:47:42;7.00;99.90
23520;DHT22;11936;50.820;4.336;2023-02-01T05:50:08;7.00;99.90
23520;DHT22;11936;50.820;4.336;2023-02-01T05:52:34;7.00;99.90
23520;DHT22;11936;50.820;4.336;2023-02-01T05:54:59;7.00;99.90
23520;DHT22;11936;50.820;4.336;2023-02-01T05:57:25;7.00;99.90
23520;DHT22;11936;50.820;4.336;2023-02-01T05:59:50;6.90;99.90
23520;DHT22;11936;50.820;4.336;2023-02-01T06:02:16;7.00;99.90
23520;DHT22;11936;50.820;4.336;2023-02-01T06:04:41;6.90;99.90
23520;DHT22;11936;50.820;4.336;2023-02-01T06:07:08;6.90;99.90
23520;DHT22;11936;50.820;4.336;2023-02-01T06:09:36;6.90;99.90
23520;DHT22;11936;50.820;4.336;2023-02-01T06:12:03;6.90;99.90
23520;DHT22;11936;50.820;4.336;2023-02-01T06:14:30;6.80;99.90
23520;DHT22;11936;50.820;4.336;2023-02-01T06:16:55;6.80;99.90
23520;DHT22;11936;50.820;4.336;2023-02-01T06:19:22;6.80;99.90
23520;DHT22;11936;50.820;4.336;2023-02-01T06:21:47;6.90;99.90
23520;DHT22;11936;50.820;4.336;2023-02-01T06:24:13;6.90;99.90
23520;DHT22;11936;50.820;4.336;2023-02-01T06:26:39;6.90;99.90
23520;DHT22;11936;50.820;4.336;2023-02-01T06:29:09;6.80;99.90
23520;DHT22;11936;50.820;4.336;2023-02-01T06:31:35;6.80;99.90
23520;DHT22;11936;50.820;4.336;2023-02-01T06:34:01;6.70;99.90
23520;DHT22;11936;50.820;4.336;2023-02-01T06:36:28;6.60;99.90
23520;DHT22;11936;50.820;4.336;2023-02-01T06:38:54;6.60;99.90
23520;DHT22;11936;50.820;4.336;2023-02-01T06:41:22;6.50;99.90
23520;DHT22;11936;50.820;4.336;2023-02-01T06:43:48;6.60;99.90
23520;DHT22;11936;50.820;4.336;2023-02-01T06:46:14;6.60;99.90
23520;DHT22;11936;50.820;4.336;2023-02-01T06:48:40;6.70;99.90
23520;DHT22;11936;50.820;4.336;2023-02-01T06:51:15;6.70;99.90
23520;DHT22;11936;50.820;4.336;2023-02-01T06:53:43;6.70;99.90
23520;DHT22;11936;50.820;4.336;2023-02-01T06:56:09;6.80;99.90
23520;DHT22;11936;50.820;4.336;2023-02-01T06:58:34;6.80;99.90
23520;DHT22;11936;50.820;4.336;2023-02-01T07:01:05;6.80;99.90
23520;DHT22;11936;50.820;4.336;2023-02-01T07:03:31;6.80;99.90
23520;DHT22;11936;50.820;4.336;2023-02-01T07:05:57;6.80;99.90
23520;DHT22;11936;50.820;4.336;2023-02-01T07:08:29;6.80;99.90
23520;DHT22;11936;50.820;4.336;2023-02-01T07:10:54;6.70;99.90
23520;DHT22;11936;50.820;4.336;2023-02-01T07:13:20;6.80;99.90
23520;DHT22;11936;50.820;4.336;2023-02-01T07:15:46;6.80;99.90
23520;DHT22;11936;50.820;4.336;2023-02-01T07:18:15;6.80;99.90
23520;DHT22;11936;50.820;4.336;2023-02-01T07:20:42;6.90;99.90
23520;DHT22;11936;50.820;4.336;2023-02-01T07:23:10;6.80;99.90
23520;DHT22;11936;50.820;4.336;2023-02-01T07:25:39;6.80;99.90
23520;DHT22;11936;50.820;4.336;2023-02-01T07:28:04;6.80;99.90
23520;DHT22;11936;50.820;4.336;2023-02-01T07:30:30;6.80;99.90
23520;DHT22;11936;50.820;4.336;2023-02-01T07:32:56;6.70;99.90
23520;DHT22;11936;50.820;4.336;2023-02-01T07:35:24;6.80;99.90
23520;DHT22;11936;50.820;4.336;2023-02-01T07:37:50;6.70;99.90
23520;DHT22;11936;50.820;4.336;2023-02-01T07:40:15;6.80;99.90
23520;DHT22;11936;50.820;4.336;2023-02-01T07:42:41;6.60;99.90
23520;DHT22;11936;50.820;4.336;2023-02-01T07:45:07;6.60;99.90
23520;DHT22;11936;50.820;4.336;2023-02-01T07:47:33;6.60;99.90
23520;DHT22;11936;50.820;4.336;2023-02-01T07:49:58;6.70;99.90
23520;DHT22;11936;50.820;4.336;2023-02-01T07:52:24;6.80;99.90
23520;DHT22;11936;50.820;4.336;2023-02-01T07:54:52;6.80;99.90
23520;DHT22;11936;50.820;4.336;2023-02-01T07:57:19;6.60;99.90
23520;DHT22;11936;50.820;4.336;2023-02-01T07:59:44;6.70;99.90
23520;DHT22;11936;50.820;4.336;2023-02-01T08:02:29;6.70;99.90
23520;DHT22;11936;50.820;4.336;2023-02-01T08:04:54;6.70;99.90
23520;DHT22;11936;50.820;4.336;2023-02-01T08:07:20;6.90;99.90
23520;DHT22;11936;50.820;4.336;2023-02-01T08:09:45;6.70;99.90
23520;DHT22;11936;50.820;4.336;2023-02-01T08:12:11;6.80;99.90
23520;DHT22;11936;50.820;4.336;2023-02-01T08:14:36;6.70;99.90
23520;DHT22;11936;50.820;4.336;2023-02-01T08:17:05;6.80;99.90
23520;DHT22;11936;50.820;4.336;2023-02-01T08:19:30;6.80;99.90
23520;DHT22;11936;50.820;4.336;2023-02-01T08:21:56;7.00;99.90
23520;DHT22;11936;50.820;4.336;2023-02-01T08:24:22;7.10;99.90
23520;DHT22;11936;50.820;4.336;2023-02-01T08:26:47;7.00;99.90
23520;DHT22;11936;50.820;4.336;2023-02-01T08:29:13;6.90;99.90
23520;DHT22;11936;50.820;4.336;2023-02-01T08:31:39;7.10;99.90
23520;DHT22;11936;50.820;4.336;2023-02-01T08:34:08;7.00;99.90
23520;DHT22;11936;50.820;4.336;2023-02-01T08:36:34;7.10;99.90
23520;DHT22;11936;50.820;4.336;2023-02-01T08:39:00;7.10;99.90
23520;DHT22;11936;50.820;4.336;2023-02-01T08:41:29;7.20;99.90
23520;DHT22;11936;50.820;4.336;2023-02-01T08:43:56;7.10;99.90
23520;DHT22;11936;50.820;4.336;2023-02-01T08:46:22;6.90;99.90
23520;DHT22;11936;50.820;4.336;2023-02-01T08:48:48;7.00;99.90
23520;DHT22;11936;50.820;4.336;2023-02-01T08:51:16;7.00;99.90
23520;DHT22;11936;50.820;4.336;2023-02-01T08:53:42;7.10;99.90
23520;DHT22;11936;50.820;4.336;2023-02-01T08:56:09;7.20;99.90
23520;DHT22;11936;50.820;4.336;2023-02-01T08:58:35;7.20;99.90
23520;DHT22;11936;50.820;4.336;2023-02-01T09:01:06;7.10;99.90
23520;DHT22;11936;50.820;4.336;2023-02-01T09:03:31;7.10;99.90
23520;DHT22;11936;50.820;4.336;2023-02-01T09:06:07;7.20;99.90
23520;DHT22;11936;50.820;4.336;2023-02-01T09:08:34;7.30;99.90
23520;DHT22;11936;50.820;4.336;2023-02-01T09:11:01;7.30;99.90
23520;DHT22;11936;50.820;4.336;2023-02-01T09:13:27;7.30;99.90
23520;DHT22;11936;50.820;4.336;2023-02-01T09:15:53;7.50;99.90
23520;DHT22;11936;50.820;4.336;2023-02-01T09:18:19;7.50;99.90
23520;DHT22;11936;50.820;4.336;2023-02-01T09:20:44;7.30;99.90
23520;DHT22;11936;50.820;4.336;2023-02-01T09:23:10;7.40;99.90
23520;DHT22;11936;50.820;4.336;2023-02-01T09:25:37;7.20;99.90
23520;DHT22;11936;50.820;4.336;2023-02-01T09:28:03;7.20;99.90
23520;DHT22;11936;50.820;4.336;2023-02-01T09:30:32;7.30;99.90
23520;DHT22;11936;50.820;4.336;2023-02-01T09:32:57;7.30;99.90
23520;DHT22;11936;50.820;4.336;2023-02-01T09:35:23;7.30;99.90
23520;DHT22;11936;50.820;4.336;2023-02-01T09:37:48;7.50;99.90
23520;DHT22;11936;50.820;4.336;2023-02-01T09:40:16;7.50;99.90
23520;DHT22;11936;50.820;4.336;2023-02-01T09:45:46;7.60;99.90
23520;DHT22;11936;50.820;4.336;2023-02-01T09:51:05;7.70;99.90
23520;DHT22;11936;50.820;4.336;2023-02-01T09:53:38;7.70;99.90
23520;DHT22;11936;50.820;4.336;2023-02-01T09:56:21;7.80;99.90
23520;DHT22;11936;50.820;4.336;2023-02-01T10:04:37;7.80;99.90
23520;DHT22;11936;50.820;4.336;2023-02-01T10:23:11;8.00;99.90
23520;DHT22;11936;50.820;4.336;2023-02-01T10:28:18;8.10;99.90
23520;DHT22;11936;50.820;4.336;2023-02-01T10:30:47;8.00;99.90
23520;DHT22;11936;50.820;4.336;2023-02-01T10:33:21;8.10;99.90
23520;DHT22;11936;50.820;4.336;2023-02-01T10:35:53;8.20;99.90
23520;DHT22;11936;50.820;4.336;2023-02-01T10:38:35;8.10;99.90
23520;DHT22;11936;50.820;4.336;2023-02-01T10:41:22;8.10;99.90
23520;DHT22;11936;50.820;4.336;2023-02-01T10:43:57;8.30;99.90
23520;DHT22;11936;50.820;4.336;2023-02-01T10:46:23;8.30;99.90
23520;DHT22;11936;50.820;4.336;2023-02-01T10:48:55;8.40;99.90
23520;DHT22;11936;50.820;4.336;2023-02-01T10:54:20;8.40;99.90
23520;DHT22;11936;50.820;4.336;2023-02-01T10:56:55;8.50;99.90
23520;DHT22;11936;50.820;4.336;2023-02-01T11:02:55;8.70;99.90
23520;DHT22;11936;50.820;4.336;2023-02-01T11:05:43;8.80;99.90
23520;DHT22;11936;50.820;4.336;2023-02-01T11:08:21;8.90;99.90
23520;DHT22;11936;50.820;4.336;2023-02-01T11:10:49;9.00;99.90
23520;DHT22;11936;50.820;4.336;2023-02-01T11:13:31;9.00;99.90
23520;DHT22;11936;50.820;4.336;2023-02-01T11:15:59;8.90;99.90
23520;DHT22;11936;50.820;4.336;2023-02-01T11:18:33;9.00;99.90
23520;DHT22;11936;50.820;4.336;2023-02-01T11:21:00;9.10;99.90
23520;DHT22;11936;50.820;4.336;2023-02-01T11:23:33;9.10;99.90
23520;DHT22;11936;50.820;4.336;2023-02-01T11:26:01;9.10;99.90
23520;DHT22;11936;50.820;4.336;2023-02-01T11:28:46;9.10;99.90
23520;DHT22;11936;50.820;4.336;2023-02-01T11:31:15;9.10;99.90
23520;DHT22;11936;50.820;4.336;2023-02-01T11:33:48;9.10;99.90
23520;DHT22;11936;50.820;4.336;2023-02-01T11:39:26;9.10;99.90
23520;DHT22;11936;50.820;4.336;2023-02-01T11:44:36;9.20;99.90
23520;DHT22;11936;50.820;4.336;2023-02-01T11:47:38;9.10;99.90
23520;DHT22;11936;50.820;4.336;2023-02-01T11:50:14;9.10;99.90
23520;DHT22;11936;50.820;4.336;2023-02-01T11:55:44;9.00;99.90
23520;DHT22;11936;50.820;4.336;2023-02-01T12:12:17;9.30;99.90
23520;DHT22;11936;50.820;4.336;2023-02-01T12:18:01;9.40;99.90
23520;DHT22;11936;50.820;4.336;2023-02-01T12:37:56;9.80;99.90
23520;DHT22;11936;50.820;4.336;2023-02-01T12:43:14;10.00;99.90
23520;DHT22;11936;50.820;4.336;2023-02-01T12:45:52;10.10;99.90
23520;DHT22;11936;50.820;4.336;2023-02-01T12:48:38;10.00;99.90
23520;DHT22;11936;50.820;4.336;2023-02-01T12:51:17;10.10;99.90
23520;DHT22;11936;50.820;4.336;2023-02-01T12:53:57;10.10;99.90
23520;DHT22;11936;50.820;4.336;2023-02-01T12:56:37;10.00;99.90
23520;DHT22;11936;50.820;4.336;2023-02-01T12:59:04;10.00;99.90
23520;DHT22;11936;50.820;4.336;2023-02-01T13:01:46;10.30;99.90
23520;DHT22;11936;50.820;4.336;2023-02-01T13:04:35;10.30;99.90
23520;DHT22;11936;50.820;4.336;2023-02-01T13:07:12;10.30;99.90
23520;DHT22;11936;50.820;4.336;2023-02-01T13:10:11;10.50;99.90
23520;DHT22;11936;50.820;4.336;2023-02-01T13:12:37;10.40;99.90
23520;DHT22;11936;50.820;4.336;2023-02-01T13:15:13;10.40;99.90
23520;DHT22;11936;50.820;4.336;2023-02-01T13:17:44;10.40;99.90
23520;DHT22;11936;50.820;4.336;2023-02-01T13:20:29;10.50;99.90
23520;DHT22;11936;50.820;4.336;2023-02-01T13:25:49;10.70;99.90
23520;DHT22;11936;50.820;4.336;2023-02-01T13:28:32;10.70;99.90
23520;DHT22;11936;50.820;4.336;2023-02-01T13:42:15;10.90;99.90
23520;DHT22;11936;50.820;4.336;2023-02-01T13:44:56;10.90;99.90
23520;DHT22;11936;50.820;4.336;2023-02-01T13:47:33;10.80;99.90
23520;DHT22;11936;50.820;4.336;2023-02-01T13:50:25;10.80;99.90
23520;DHT22;11936;50.820;4.336;2023-02-01T13:53:18;10.70;99.90
23520;DHT22;11936;50.820;4.336;2023-02-01T13:56:01;10.70;99.90
23520;DHT22;11936;50.820;4.336;2023-02-01T13:58:36;10.60;99.90
23520;DHT22;11936;50.820;4.336;2023-02-01T14:03:52;10.60;99.90
23520;DHT22;11936;50.820;4.336;2023-02-01T14:06:39;10.60;99.90
23520;DHT22;11936;50.820;4.336;2023-02-01T14:21:51;10.90;99.90
23520;DHT22;11936;50.820;4.336;2023-02-01T14:24:34;10.90;99.90
23520;DHT22;11936;50.820;4.336;2023-02-01T14:27:19;10.90;99.90
23520;DHT22;11936;50.820;4.336;2023-02-01T14:29:57;10.90;99.90
23520;DHT22;11936;50.820;4.336;2023-02-01T14:32:30;10.70;99.90
23520;DHT22;11936;50.820;4.336;2023-02-01T14:34:59;10.60;99.90
23520;DHT22;11936;50.820;4.336;2023-02-01T14:37:29;10.50;99.90
23520;DHT22;11936;50.820;4.336;2023-02-01T14:58:02;10.50;99.90
23520;DHT22;11936;50.820;4.336;2023-02-01T15:00:31;10.60;99.90
23520;DHT22;11936;50.820;4.336;2023-02-01T15:03:22;10.60;99.90
23520;DHT22;11936;50.820;4.336;2023-02-01T15:05:55;10.50;99.90
23520;DHT22;11936;50.820;4.336;2023-02-01T15:08:27;10.30;99.90
23520;DHT22;11936;50.820;4.336;2023-02-01T15:10:54;10.40;99.90
23520;DHT22;11936;50.820;4.336;2023-02-01T15:13:23;10.30;99.90
23520;DHT22;11936;50.820;4.336;2023-02-01T15:16:12;10.30;99.90
23520;DHT22;11936;50.820;4.336;2023-02-01T15:18:38;10.40;99.90
23520;DHT22;11936;50.820;4.336;2023-02-01T15:21:05;10.30;99.90
23520;DHT22;11936;50.820;4.336;2023-02-01T15:23:32;10.30;99.90
23520;DHT22;11936;50.820;4.336;2023-02-01T15:25:58;10.30;99.90
23520;DHT22;11936;50.820;4.336;2023-02-01T15:28:25;10.30;99.90
23520;DHT22;11936;50.820;4.336;2023-02-01T15:31:04;10.20;99.90
23520;DHT22;11936;50.820;4.336;2023-02-01T15:33:31;10.30;99.90
23520;DHT22;11936;50.820;4.336;2023-02-01T15:38:33;10.20;99.90
23520;DHT22;11936;50.820;4.336;2023-02-01T15:41:08;10.10;99.90
23520;DHT22;11936;50.820;4.336;2023-02-01T15:43:45;10.10;99.90
23520;DHT22;11936;50.820;4.336;2023-02-01T15:46:16;10.10;99.90
23520;DHT22;11936;50.820;4.336;2023-02-01T15:48:49;10.20;99.90
23520;DHT22;11936;50.820;4.336;2023-02-01T15:51:18;10.10;99.90
23520;DHT22;11936;50.820;4.336;2023-02-01T15:53:47;10.10;99.90
23520;DHT22;11936;50.820;4.336;2023-02-01T15:56:14;10.20;99.90
23520;DHT22;11936;50.820;4.336;2023-02-01T15:58:42;10.10;99.90
23520;DHT22;11936;50.820;4.336;2023-02-01T16:01:11;10.00;99.90
23520;DHT22;11936;50.820;4.336;2023-02-01T16:03:44;10.10;99.90
23520;DHT22;11936;50.820;4.336;2023-02-01T16:06:26;10.00;99.90
23520;DHT22;11936;50.820;4.336;2023-02-01T16:11:31;10.00;99.90
23520;DHT22;11936;50.820;4.336;2023-02-01T16:13:58;10.00;99.90
23520;DHT22;11936;50.820;4.336;2023-02-01T16:16:26;9.90;99.90
23520;DHT22;11936;50.820;4.336;2023-02-01T16:18:52;9.90;99.90
23520;DHT22;11936;50.820;4.336;2023-02-01T16:21:17;10.00;99.90
23520;DHT22;11936;50.820;4.336;2023-02-01T16:23:43;10.00;99.90
23520;DHT22;11936;50.820;4.336;2023-02-01T16:26:09;10.10;99.90
23520;DHT22;11936;50.820;4.336;2023-02-01T16:28:36;9.90;99.90
23520;DHT22;11936;50.820;4.336;2023-02-01T16:31:01;9.80;99.90
23520;DHT22;11936;50.820;4.336;2023-02-01T16:33:27;9.90;99.90
23520;DHT22;11936;50.820;4.336;2023-02-01T16:35:55;9.90;99.90
23520;DHT22;11936;50.820;4.336;2023-02-01T16:38:26;9.90;99.90
23520;DHT22;11936;50.820;4.336;2023-02-01T16:40:52;9.90;99.90
23520;DHT22;11936;50.820;4.336;2023-02-01T16:43:24;10.00;99.90
23520;DHT22;11936;50.820;4.336;2023-02-01T16:45:54;9.80;99.90
23520;DHT22;11936;50.820;4.336;2023-02-01T16:48:30;9.80;99.90
23520;DHT22;11936;50.820;4.336;2023-02-01T16:51:03;9.80;99.90
23520;DHT22;11936;50.820;4.336;2023-02-01T16:53:32;9.80;99.90
23520;DHT22;11936;50.820;4.336;2023-02-01T16:55:57;9.90;99.90
23520;DHT22;11936;50.820;4.336;2023-02-01T16:58:24;9.90;99.90
23520;DHT22;11936;50.820;4.336;2023-02-01T17:00:50;9.90;99.90
23520;DHT22;11936;50.820;4.336;2023-02-01T17:03:17;10.00;99.90
23520;DHT22;11936;50.820;4.336;2023-02-01T17:05:47;9.90;99.90
23520;DHT22;11936;50.820;4.336;2023-02-01T17:08:17;9.90;99.90
23520;DHT22;11936;50.820;4.336;2023-02-01T17:10:45;9.90;99.90
23520;DHT22;11936;50.820;4.336;2023-02-01T17:13:15;9.80;99.90
23520;DHT22;11936;50.820;4.336;2023-02-01T17:15:49;9.90;99.90
23520;DHT22;11936;50.820;4.336;2023-02-01T17:18:17;9.90;99.90
23520;DHT22;11936;50.820;4.336;2023-02-01T17:20:43;10.00;99.90
23520;DHT22;11936;50.820;4.336;2023-02-01T17:23:09;10.00;99.90
23520;DHT22;11936;50.820;4.336;2023-02-01T17:25:35;9.90;99.90
23520;DHT22;11936;50.820;4.336;2023-02-01T17:28:01;9.80;99.90
23520;DHT22;11936;50.820;4.336;2023-02-01T17:30:26;9.90;99.90
23520;DHT22;11936;50.820;4.336;2023-02-01T17:32:52;9.90;99.90
23520;DHT22;11936;50.820;4.336;2023-02-01T17:35:23;9.70;99.90
23520;DHT22;11936;50.820;4.336;2023-02-01T17:37:49;9.70;99.90
23520;DHT22;11936;50.820;4.336;2023-02-01T17:40:15;9.80;99.90
23520;DHT22;11936;50.820;4.336;2023-02-01T17:42:41;9.70;99.90
23520;DHT22;11936;50.820;4.336;2023-02-01T17:45:32;9.80;99.90
23520;DHT22;11936;50.820;4.336;2023-02-01T17:48:01;9.80;99.90
23520;DHT22;11936;50.820;4.336;2023-02-01T17:50:31;9.80;99.90
23520;DHT22;11936;50.820;4.336;2023-02-01T17:52:57;9.80;99.90
23520;DHT22;11936;50.820;4.336;2023-02-01T17:55:24;9.70;99.90
23520;DHT22;11936;50.820;4.336;2023-02-01T17:57:51;9.70;99.90
23520;DHT22;11936;50.820;4.336;2023-02-01T18:00:18;9.70;99.90
23520;DHT22;11936;50.820;4.336;2023-02-01T18:02:44;9.60;99.90
23520;DHT22;11936;50.820;4.336;2023-02-01T18:05:25;9.60;99.90
23520;DHT22;11936;50.820;4.336;2023-02-01T18:07:51;9.60;99.90
23520;DHT22;11936;50.820;4.336;2023-02-01T18:10:17;9.70;99.90
23520;DHT22;11936;50.820;4.336;2023-02-01T18:12:45;9.70;99.90
23520;DHT22;11936;50.820;4.336;2023-02-01T18:15:17;9.70;99.90
23520;DHT22;11936;50.820;4.336;2023-02-01T18:17:43;9.70;99.90
23520;DHT22;11936;50.820;4.336;2023-02-01T18:20:29;9.60;99.90
23520;DHT22;11936;50.820;4.336;2023-02-01T18:22:55;9.40;99.90
23520;DHT22;11936;50.820;4.336;2023-02-01T18:25:24;9.50;99.90
23520;DHT22;11936;50.820;4.336;2023-02-01T18:27:52;9.40;99.90
23520;DHT22;11936;50.820;4.336;2023-02-01T18:30:23;9.60;99.90
23520;DHT22;11936;50.820;4.336;2023-02-01T18:32:49;9.50;99.90
23520;DHT22;11936;50.820;4.336;2023-02-01T18:35:24;9.40;99.90
23520;DHT22;11936;50.820;4.336;2023-02-01T18:37:51;9.40;99.90
23520;DHT22;11936;50.820;4.336;2023-02-01T18:40:25;9.50;99.90
23520;DHT22;11936;50.820;4.336;2023-02-01T18:42:54;9.50;99.90
23520;DHT22;11936;50.820;4.336;2023-02-01T18:47:51;9.60;99.90
23520;DHT22;11936;50.820;4.336;2023-02-01T18:50:20;9.50;99.90
23520;DHT22;11936;50.820;4.336;2023-02-01T18:52:45;9.50;99.90